Portada
METAR-TAF:

METAR-TAF

Aeroports :

Panaji, Índia

latitud: 15-22-51N, longitud: 073-49-53E, altitud: 56 m

Observació

L'informe es va fer fa 2 hores i 40 minuts, a les 16:00 UTC
Vent 12 kt del Oest amb ràfegues de 22 kt
Temperatura 26°C
Humitat 100%
Pressió 1005 hPa
Visibilitat: 5000 m
Escasses núvols a una alçada de 800 ft
Núvols disperses a una alçada de 1600 ft
Cel cobert a una alçada de 8000 ft
plugim

METAR: VOGO 231600Z 28012G22KT 5000 DZ FEW008 SCT016 OVC080 26/26 Q1005 TEMPO 3000 RA

Hora: 00:10 (18:40 UTC)

Pronòstic

L'informe es va fer fa 40 minuts, a les 18:00 UTC
Pronòstic vàlid del 22 a les 21 UTC al 23 a les 06 UTC
Vent 10 kt del Oest/Nord-Oest amb ràfegues de 20 kt
Visibilitat: 5000 m
Escasses núvols a una alçada de 1000 ft
Núvols disperses a una alçada de 1600 ft
Cel cobert a una alçada de 8000 ft
pluja
Temporalment
l' 22 a les 22 UTC al 23 a les 02 UTC
Visibilitat: 2000 m
pluja

TAF: VOGO 221800Z 2221/2306 29010G20KT 5000 -RA FEW010 SCT016 OVC080 TEMPO 2222/2302 2000 RA

Observacions i pronòstics meteorològics de més de 4000 aeroports (METAR i TAF).

Les estacions disponibles són els punts grocs i vermells al mapa.

Posi el ratolí al punt desitjat per veure el nom de l'estació.

Feu clic per veure les observacions i els pronòstics meteorològics.

Per canviar el mapa: feu clic els botons verds amb una creu de color negre per apropar; al botó verd amb un guió per allunyar la imatge; o en les fletxes verdes per a mapes adjacents.


METAR-TAF: